Flight Track Log - Related Links

Times and Time Zones

All times are in EDT time to prevent confusion due to time zone crossing. See the N9191V flight status page for this flight to view local times or setup timezone preferences in your user account.

Time Position Orientation Groundspeed Altitude Reporting Facility
EDT Latitude Longitude Course Direction KTS MPH feet Rate Location/Type
Fri 02:09:00 PM 42.0633 -79.8503 94° East  Level FlightAware Approximate
Fri 02:10:00 PM 42.0606 -79.7977 94° East  Level FlightAware Approximate
Fri 02:11:00 PM 42.0579 -79.7451 94° East  Level FlightAware Approximate
Fri 02:12:00 PM 42.0551 -79.6925 94° East  Level FlightAware Approximate
Fri 02:13:00 PM 42.0523 -79.6399 94° East  Level FlightAware Approximate
Fri 02:14:00 PM 42.0495 -79.5873 94° East  Level FlightAware Approximate
Fri 02:15:00 PM 42.0467 -79.5347 94° East  Level FlightAware Approximate
Fri 02:16:00 PM 42.0439 -79.4821 94° East  Level FlightAware Approximate
Fri 02:17:00 PM 42.0410 -79.4296 94° East  Level FlightAware Approximate
Fri 02:17:58 PM 41.9739 -79.5303 94° East 245 282 5,100  Level Cleveland Center
Fri 02:18:00 PM 42.0381 -79.3770 94° East  Level FlightAware Approximate
Fri 02:18:58 PM 41.9672 -79.4717 99° East 176 203 5,100  Level Cleveland Center
Fri 02:19:00 PM 42.0352 -79.3244 94° East  Level FlightAware Approximate
Fri 02:19:58 PM 41.9625 -79.4158 96° East 156 180 5,000  Level Cleveland Center
Fri 02:20:00 PM 42.0323 -79.2718 94° East  Level FlightAware Approximate
Fri 02:20:58 PM 41.9556 -79.3603 100° East 156 180 5,000  Level Cleveland Center
Fri 02:21:00 PM 42.0293 -79.2193 94° East  Level FlightAware Approximate
Fri 02:21:58 PM 41.9547 -79.2933 91° East 163 188 5,100  Level Cleveland Center
Fri 02:22:00 PM 42.0263 -79.1667 94° East  Level FlightAware Approximate
Fri 02:22:58 PM 41.9542 -79.2317 91° East 158 182 5,100  Level Cleveland Center
Fri 02:23:00 PM 42.0233 -79.1142 94° East  Level FlightAware Approximate
Fri 02:23:58 PM 41.9514 -79.1706 93° East 158 182 5,100  Level Cleveland Center
Fri 02:24:57 PM 41.9486 -79.1147 94° East 158 182 4,900 -100 Descending Cleveland Center
Fri 02:25:58 PM 41.9436 -79.0561 97° East 158 182 4,900 50 Level Cleveland Center
Fri 02:26:58 PM 41.9428 -78.9892 91° East 164 189 5,000 -50 Climbing Cleveland Center
Fri 02:27:57 PM 41.9336 -78.9281 101° East 158 182 4,800 -150 Descending Cleveland Center
Fri 02:28:58 PM 41.9264 -78.8750 100° East 158 182 4,700 -149 Descending Cleveland Center
Fri 02:29:58 PM 41.9236 -78.8167 94° East 158 182 4,500 -50 Descending Cleveland Center
Fri 02:30:57 PM 41.9225 -78.7581 91° East 158 182 4,600  Climbing Cleveland Center
Fri 02:31:58 PM 41.9194 -78.6994 94° East 158 182 4,500 -50 Descending Cleveland Center
Fri 02:32:58 PM 41.9164 -78.6297 93° East 158 182 4,500 101 Level Cleveland Center
Fri 02:33:57 PM 41.9131 -78.5686 94° East 158 182 4,700 100 Climbing Cleveland Center
Fri 02:34:58 PM 41.9100 -78.5100 94° East 158 182 4,700  Level Cleveland Center
Fri 02:35:58 PM 41.9089 -78.4514 91° East 158 182 4,700 -50 Level Cleveland Center
Fri 02:36:57 PM 41.9058 -78.3931 94° East 158 182 4,600  Descending Cleveland Center
Fri 02:37:58 PM 41.9025 -78.3317 94° East 158 182 4,700 50 Climbing Cleveland Center
Fri 02:38:57 PM 41.8972 -78.2706 97° East 158 182 4,700  Level Cleveland Center
Fri 02:39:57 PM 41.8958 -78.2119 92° East 158 182 4,700  Level Cleveland Center
Fri 02:40:58 PM 41.8947 -78.1533 91° East 158 182 4,700 -50 Level Cleveland Center
Fri 02:41:57 PM 41.8914 -78.0922 94° East 158 182 4,600 -50 Descending Cleveland Center
Fri 02:42:57 PM 41.8900 -78.0308 92° East 163 188 4,600 50 Level Cleveland Center
Fri 02:43:57 PM 41.8864 -77.9697 95° East 163 188 4,700  Climbing Cleveland Center
Fri 02:44:58 PM 41.8853 -77.9111 91° East 158 182 4,600  Descending Cleveland Center
Fri 02:45:57 PM 41.8836 -77.8497 92° East 158 182 4,700  Climbing Cleveland Center
Fri 02:46:58 PM 41.8803 -77.7942 95° East 158 182 4,600  Descending Cleveland Center
Fri 02:47:57 PM 41.8789 -77.7328 92° East 158 182 4,700 11 Climbing Cleveland Center
Fri 02:49:00 PM 41.8799 -77.6746 89° East  Level FlightAware Approximate
Fri 02:56:00 PM 41.8784 -77.2867 92° East  Level FlightAware Approximate
Fri 02:57:00 PM 41.8729 -77.2301 97° East  Level FlightAware Approximate
Fri 02:58:00 PM 41.8675 -77.1735 97° East  Level FlightAware Approximate
Fri 02:59:00 PM 41.8619 -77.1170 97° East  Level FlightAware Approximate
Fri 03:00:00 PM 41.8564 -77.0604 97° East  Level FlightAware Approximate
Fri 03:01:00 PM 41.8508 -77.0039 98° East  Level FlightAware Approximate
Fri 03:02:00 PM 41.8452 -76.9474 98° East  Level FlightAware Approximate
Fri 03:03:00 PM 41.8396 -76.8908 98° East  Level FlightAware Approximate
Fri 03:04:00 PM 41.8340 -76.8343 98° East  Level FlightAware Approximate
Fri 03:05:00 PM 41.8283 -76.7778 98° East  Level FlightAware Approximate
Fri 03:06:00 PM 41.8226 -76.7213 98° East  Level FlightAware Approximate
Fri 03:07:00 PM 41.8169 -76.6648 98° East  Level FlightAware Approximate
Fri 03:08:00 PM 41.8111 -76.6084 98° East  Level FlightAware Approximate
Fri 03:09:00 PM 41.8053 -76.5519 98° East  Level FlightAware Approximate
Fri 03:10:00 PM 41.7996 -76.4940 95° East  Level FlightAware Approximate
Fri 03:11:00 PM 41.7962 -76.4372 95° East  Level FlightAware Approximate
Fri 03:12:00 PM 41.7829 -76.3832 108° East  Level FlightAware Approximate
Fri 03:13:00 PM 41.7696 -76.3294 108° East  Level FlightAware Approximate
Fri 03:14:00 PM 41.7562 -76.2755 108° East  Level FlightAware Approximate
Fri 03:15:00 PM 41.7429 -76.2216 108° East  Level FlightAware Approximate
Fri 03:16:00 PM 41.7295 -76.1678 108° East  Level FlightAware Approximate
Fri 03:17:00 PM 41.7160 -76.1140 108° East  Level FlightAware Approximate
Fri 03:18:00 PM 41.7026 -76.0602 108° East  Level FlightAware Approximate
Fri 03:19:00 PM 41.6891 -76.0064 109° East  Level FlightAware Approximate
Fri 03:20:00 PM 41.6792 -75.9432 98° East  Level FlightAware Approximate
Fri 03:21:00 PM 41.6734 -75.8870 98° East  Level FlightAware Approximate
Fri 03:22:00 PM 41.6675 -75.8309 98° East  Level FlightAware Approximate
Fri 03:23:00 PM 41.6617 -75.7747 98° East  Level FlightAware Approximate
Fri 03:24:00 PM 41.6558 -75.7186 98° East  Level FlightAware Approximate
Fri 03:25:00 PM 41.6499 -75.6625 98° East  Level FlightAware Approximate
Fri 03:26:00 PM 41.6439 -75.6064 98° East  Level FlightAware Approximate
Fri 03:27:00 PM 41.6380 -75.5503 98° East  Level FlightAware Approximate
Fri 03:28:00 PM 41.6320 -75.4942 98° East  Level FlightAware Approximate
Fri 03:29:00 PM 41.6259 -75.4381 98° East  Level FlightAware Approximate
Fri 03:30:00 PM 41.6199 -75.3820 98° East  Level FlightAware Approximate
Fri 03:30:45 PM 41.6333 -75.1500 98° East 160 184 5,100  Level New York TRACON
Fri 03:31:00 PM 41.6138 -75.3260 98° East  Level FlightAware Approximate
Fri 03:31:45 PM 41.6333 -75.1000 90° East 161 185 5,100  Level New York TRACON
Fri 03:32:00 PM 41.6077 -75.2699 98° East  Level FlightAware Approximate
Fri 03:32:45 PM 41.6333 -75.0333 90° East 166 191 5,100  Level New York TRACON
Fri 03:33:00 PM 41.6016 -75.2139 98° East  Level FlightAware Approximate
Fri 03:33:45 PM 41.6333 -74.9833 90° East 167 192 5,200  Level New York TRACON
Fri 03:34:00 PM 41.5954 -75.1579 98° East  Level FlightAware Approximate
Fri 03:34:40 PM 41.6333 -74.9167 90° East 163 188 5,100  Level New York TRACON
Fri 03:35:00 PM 41.5892 -75.1019 98° East  Level FlightAware Approximate
Fri 03:35:39 PM 41.6333 -74.8667 90° East 163 188 5,200  Level New York TRACON
Fri 03:36:45 PM 41.6333 -74.8000 90° East 165 190 5,100 -95 Descending New York TRACON
Fri 03:37:45 PM 41.6333 -74.7333 90° East 161 185 5,000 -50 Descending New York TRACON
Fri 03:38:45 PM 41.6333 -74.6833 90° East 159 183 5,000 -100 Level New York TRACON
Fri 03:39:45 PM 41.6333 -74.6167 90° East 164 189 4,800 -250 Descending New York TRACON
Fri 03:40:45 PM 41.6333 -74.5500 90° East 169 194 4,500 -300 Descending New York TRACON
Fri 03:41:45 PM 41.6333 -74.5000 90° East 161 185 4,200 -250 Descending New York TRACON
Fri 03:42:45 PM 41.6333 -74.4333 90° East 153 176 4,000 -100 Descending New York TRACON
Fri 03:43:45 PM 41.6333 -74.3833 90° East 154 177 4,000  Level New York TRACON
Fri 03:44:45 PM 41.6333 -74.3167 90° East 162 186 4,000  Level New York TRACON
Fri 03:45:45 PM 41.6333 -74.2500 90° East 165 190 4,000 -190 Level New York TRACON
Fri 03:46:51 PM 41.6333 -74.1833 90° East 175 201 3,600 -524 Descending New York TRACON
Fri 03:47:51 PM 41.5833 -74.1500 153° Southeast 177 204 2,900 -300 Descending New York TRACON
Fri 03:48:51 PM 41.5833 -74.1000 90° East 159 183 3,000  Climbing New York TRACON
Fri 03:49:51 PM 41.6000 -74.0500 66° East 155 178 2,900 -300 Descending New York TRACON
Fri 03:50:51 PM 41.6167 -73.9833 71° East 167 192 2,400 -450 Descending New York TRACON
Fri 03:51:51 PM 41.6333 -73.9333 66° East 157 181 2,000 -350 Descending New York TRACON
Fri 03:52:51 PM 41.6667 -73.9000 37° Northeast 130 150 1,700 -500 Descending New York TRACON
Fri 03:53:51 PM 41.6500 -73.8667 124° Southeast 121 139 1,000 -700 Descending New York TRACON
Fri 03:55:00 PM 41.6266 -73.8842 200° South  Level Estimated
Fri 04:02:00 PM 41.6266 -73.8842 90° East  Level Estimated
Fri 04:03:00 PM 41.6266 -73.8842 90° East  Level Estimated

Login

Don't have an account? Register now (free) for customized features, flight alerts, and more!